KSUE

Door County Cherryland Airport

Sturgeon Bay, Wisconsin, USA
METAR KSUE 280056Z AUTO 16006KT 10SM CLR 22/16 A2987 RMK AO2 SLP128 T02220156
Observed Flight Rules
May-28 @ 00:56 UTC (20 minutes ago) Visual Flight Rules
Wind Visibility Clouds
160° at 6 knots 10 miles
  • Clear skies
Temperatures Readings
Current 22°C / 72°F
Dewpoint 16°C / 61°F
Humidity 69%
Altimeter 29.87" Hg
Pressure 1012.8 hPa
Elevation 221
METAR KSUE 280056Z AUTO 16006KT 10SM CLR 22/16 A2987 RMK AO2 SLP128 T02220156
Observed Flight Rules
May-28 @ 00:56 UTC
(20 minutes ago)
VFR
Wind Visibility
160° at 6 knots 10 miles
Clouds
  • Clear skies
Temperature Dewpoint
22°C / 72°F 16°C / 61°F
Humidity Altimeter Pressure
69% 29.87" Hg 1012.8 hPa